Time;durP1;ratioP1;P1;durP2;ratioP2;P2;SDS_P1;SDS_P2;PMS_P1;PMS_P2;Temp;Humidity;BMP_temperature;BMP_pressure;BME280_temperature;BME280_humidity;BME280_pressure;Samples;Min_cycle;Max_cycle;Signal;HPM_P1;HPM_P2
2021/01/16 00:01:07;;;;;;;;;68.25;44.00;;;;;-6.33;92.62;99973.41;5035566;28;8871;-63
2021/01/16 00:03:34;;;;;;;;;62.00;41.00;;;;;-6.00;92.18;99967.66;5040197;28;8855;-62
2021/01/16 00:06:01;;;;;;;;;52.25;33.75;;;;;-5.98;91.97;99968.56;5020717;28;8835;-63
2021/01/16 00:08:29;;;;;;;;;68.75;43.25;;;;;-6.37;92.13;99970.75;5041341;28;8872;-63
2021/01/16 00:10:59;;;;;;;;;56.00;44.25;;;;;-6.04;92.75;99967.63;5033627;28;8847;-63
2021/01/16 00:13:28;;;;;;;;;55.50;40.50;;;;;-6.31;92.40;99963.00;5009439;28;8863;-63
2021/01/16 00:15:56;;;;;;;;;54.50;35.25;;;;;-6.50;92.33;99961.88;5017673;28;9021;-63
2021/01/16 00:18:24;;;;;;;;;54.25;40.00;;;;;-6.35;92.55;99969.03;5022454;28;8840;-63
2021/01/16 00:20:55;;;;;;;;;69.00;52.75;;;;;-6.58;92.24;99964.44;5014658;28;8827;-63
2021/01/16 00:23:31;;;;;;;;;66.00;45.25;;;;;-7.35;92.55;99973.81;5017675;28;8844;-63
2021/01/16 00:25:59;;;;;;;;;55.00;30.50;;;;;-7.49;91.97;99971.88;5023280;28;8856;-63
2021/01/16 00:28:32;;;;;;;;;68.25;46.50;;;;;-7.53;93.14;99976.13;5020425;28;8969;-63
2021/01/16 00:31:01;;;;;;;;;68.50;43.75;;;;;-7.54;92.38;99974.38;5019676;28;8862;-62
2021/01/16 00:33:30;;;;;;;;;60.75;45.00;;;;;-7.81;92.05;99980.91;5013048;28;8835;-63
2021/01/16 00:35:59;;;;;;;;;48.50;33.25;;;;;-7.60;91.87;99979.53;5020445;28;8874;-62
2021/01/16 00:38:28;;;;;;;;;63.00;46.75;;;;;-7.72;91.53;99996.69;5006256;28;8995;-63
2021/01/16 00:40:57;;;;;;;;;64.50;45.00;;;;;-7.72;91.12;99990.59;5012067;28;8867;-63
2021/01/16 00:43:24;;;;;;;;;70.25;46.50;;;;;-7.77;91.83;99990.50;5013989;28;8868;-63
2021/01/16 00:45:52;;;;;;;;;59.25;39.25;;;;;-7.96;92.36;99991.06;5041677;28;8859;-62
2021/01/16 00:48:22;;;;;;;;;66.75;42.75;;;;;-8.00;92.19;99989.28;5014753;28;9584;-63
2021/01/16 00:50:52;;;;;;;;;68.50;49.00;;;;;-8.18;92.38;99993.28;5018414;28;8842;-63
2021/01/16 00:53:21;;;;;;;;;80.25;52.00;;;;;-7.50;92.32;99986.63;5034763;28;8937;-63
2021/01/16 00:55:52;;;;;;;;;74.50;51.00;;;;;-7.49;90.67;99988.38;5016819;28;9574;-63
2021/01/16 00:58:20;;;;;;;;;71.50;41.75;;;;;-7.37;88.88;99988.59;5021815;28;8833;-63
2021/01/16 01:00:50;;;;;;;;;82.25;57.25;;;;;-7.61;89.43;99977.75;5019951;28;8850;-63
2021/01/16 01:03:23;;;;;;;;;71.25;48.25;;;;;-7.33;89.94;99977.31;5012038;28;8847;-63
2021/01/16 01:05:51;;;;;;;;;66.25;45.75;;;;;-6.85;90.39;99984.09;5027648;28;8974;-63
2021/01/16 01:08:29;;;;;;;;;72.75;47.75;;;;;-7.09;88.74;99982.03;5023732;28;8840;-63
2021/01/16 01:10:57;;;;;;;;;68.00;45.00;;;;;-7.11;88.71;99982.84;5022950;28;8848;-63
2021/01/16 01:13:24;;;;;;;;;53.00;34.50;;;;;-7.15;89.80;99984.56;5023567;28;8823;-63
2021/01/16 01:15:52;;;;;;;;;63.50;45.00;;;;;-7.01;90.78;99981.25;5014207;28;8855;-63
2021/01/16 01:18:19;;;;;;;;;54.75;38.75;;;;;-7.09;90.69;99986.38;5012367;28;8854;-62
2021/01/16 01:20:46;;;;;;;;;58.25;45.25;;;;;-7.16;91.90;99981.91;5007223;28;8945;-63
2021/01/16 01:23:13;;;;;;;;;57.00;40.75;;;;;-7.34;91.63;99978.19;5018447;28;8859;-63
2021/01/16 01:25:40;;;;;;;;;54.75;36.50;;;;;-7.14;91.36;99975.84;5017060;28;8847;-63
2021/01/16 01:28:07;;;;;;;;;72.25;43.25;;;;;-7.21;91.10;99973.13;5024898;28;8866;-62
2021/01/16 01:30:34;;;;;;;;;92.00;59.50;;;;;-6.79;91.90;99967.66;5020769;28;8843;-62
2021/01/16 01:33:02;;;;;;;;;90.00;64.50;;;;;-6.51;91.57;99963.63;5022261;28;8862;-63
2021/01/16 01:35:30;;;;;;;;;81.75;54.00;;;;;-6.54;91.44;99957.50;5022305;28;8922;-63
2021/01/16 01:37:57;;;;;;;;;101.75;65.75;;;;;-6.19;91.43;99956.16;5011550;28;8851;-63
2021/01/16 01:40:26;;;;;;;;;97.00;67.50;;;;;-6.24;91.21;99951.72;5019062;28;8842;-63
2021/01/16 01:42:56;;;;;;;;;88.50;59.50;;;;;-6.35;91.64;99942.91;5013642;28;8840;-63
2021/01/16 01:45:25;;;;;;;;;83.50;58.00;;;;;-6.33;90.96;99944.69;5029583;28;8851;-63
2021/01/16 01:47:53;;;;;;;;;85.25;61.25;;;;;-6.26;91.51;99958.69;5037799;28;8937;-63
2021/01/16 01:50:21;;;;;;;;;86.00;56.50;;;;;-6.24;91.85;99951.72;5021410;28;8852;-63
2021/01/16 01:52:53;;;;;;;;;88.25;59.75;;;;;-6.28;91.47;99945.59;5018195;28;8890;-63
2021/01/16 01:55:23;;;;;;;;;81.50;56.25;;;;;-6.20;90.72;99940.44;5031266;28;8863;-63
2021/01/16 01:57:53;;;;;;;;;83.25;55.00;;;;;-6.22;90.37;99939.56;5018394;28;8837;-62
2021/01/16 02:00:22;;;;;;;;;80.50;55.25;;;;;-6.53;90.52;99939.25;5018868;28;8847;-63
2021/01/16 02:02:50;;;;;;;;;67.00;49.50;;;;;-6.30;91.03;99941.22;5034957;28;8844;-63
2021/01/16 02:05:17;;;;;;;;;83.75;57.75;;;;;-6.15;91.01;99936.16;5024529;28;8836;-61
2021/01/16 02:07:47;;;;;;;;;58.25;49.00;;;;;-6.28;90.20;99929.06;5018150;28;9556;-61
2021/01/16 02:10:22;;;;;;;;;68.00;45.00;;;;;-6.51;90.53;99926.19;5009841;28;8858;-63
2021/01/16 02:12:55;;;;;;;;;71.75;46.75;;;;;-6.54;90.46;99924.41;5004630;28;8841;-63
2021/01/16 02:15:31;;;;;;;;;75.50;50.75;;;;;-6.39;90.54;99931.56;5009986;28;8866;-62
2021/01/16 02:18:30;;;;;;;;;76.25;52.00;;;;;-6.57;90.23;99933.97;5020214;28;8859;-62
2021/01/16 02:21:00;;;;;;;;;68.75;48.75;;;;;-6.34;90.32;99929.00;5014251;28;8855;-62
2021/01/16 02:23:34;;;;;;;;;61.25;51.25;;;;;-6.60;89.36;99933.94;5018903;28;8848;-62
2021/01/16 02:26:16;;;;;;;;;30.00;13.50;;;;;-6.54;90.15;99936.59;5018703;28;8860;-62
2021/01/16 02:29:05;;;;;;;;;72.00;51.00;;;;;-6.50;89.23;99939.28;5017918;28;9623;-62
2021/01/16 02:32:04;;;;;;;;;70.50;48.00;;;;;-6.75;89.08;99938.09;5020194;28;8877;-63
2021/01/16 02:34:37;;;;;;;;;67.00;49.50;;;;;-6.59;88.93;99939.16;5005109;28;8875;-63
2021/01/16 02:37:49;;;;;;;;;72.00;47.00;;;;;-6.69;89.01;99932.06;5014057;28;8875;-63
2021/01/16 02:40:24;;;;;;;;;68.00;43.50;;;;;-6.77;88.60;99938.94;5017091;28;8855;-63
2021/01/16 02:43:13;;;;;;;;;74.75;48.00;;;;;-6.95;88.60;99940.47;5018546;28;8823;-63
2021/01/16 02:45:50;;;;;;;;;63.75;45.00;;;;;-7.14;88.65;99941.06;5013242;28;8839;-61
2021/01/16 02:48:26;;;;;;;;;61.25;45.75;;;;;-7.13;89.11;99941.09;5017479;28;8852;-63
2021/01/16 02:50:55;;;;;;;;;74.25;44.00;;;;;-7.93;88.78;99949.41;5016752;28;8871;-63
2021/01/16 02:53:24;;;;;;;;;68.50;42.50;;;;;-8.59;89.79;99952.59;5022074;28;9624;-63
2021/01/16 02:55:53;;;;;;;;;56.50;41.75;;;;;-8.81;90.40;99964.31;5017094;28;8878;-63
2021/01/16 02:58:20;;;;;;;;;48.50;29.00;;;;;-8.80;91.25;99956.50;5041218;28;8982;-63
2021/01/16 03:00:47;;;;;;;;;72.00;39.50;;;;;-9.00;91.37;99963.00;5017989;28;8839;-63
2021/01/16 03:03:14;;;;;;;;;61.50;43.75;;;;;-8.85;90.31;99968.53;5024421;28;8840;-63
2021/01/16 03:05:41;;;;;;;;;49.50;37.50;;;;;-8.78;89.89;99960.03;5019533;28;8854;-63
2021/01/16 03:08:09;;;;;;;;;53.50;36.75;;;;;-8.87;88.28;99971.13;5029320;28;8848;-63
2021/01/16 03:10:37;;;;;;;;;52.25;33.50;;;;;-8.84;87.94;99965.13;5038870;28;8858;-62
2021/01/16 03:13:05;;;;;;;;;53.75;36.00;;;;;-8.60;87.80;99958.66;5021139;28;8860;-62
2021/01/16 03:15:33;;;;;;;;;63.50;36.00;;;;;-8.89;88.09;99962.41;5036619;28;8884;-62
2021/01/16 03:18:00;;;;;;;;;54.25;32.75;;;;;-8.89;87.89;99967.63;5022340;28;8842;-63
2021/01/16 03:20:31;;;;;;;;;54.50;38.50;;;;;-8.41;86.95;99968.56;5021732;28;8871;-63
2021/01/16 03:23:00;;;;;;;;;53.50;36.25;;;;;-9.00;86.97;99963.00;5028989;28;8843;-62
2021/01/16 03:25:31;;;;;;;;;53.50;30.75;;;;;-8.86;88.19;99972.00;5032856;28;8839;-62
2021/01/16 03:28:00;;;;;;;;;62.50;35.50;;;;;-8.94;87.69;99965.78;5015510;28;8847;-62
2021/01/16 03:30:27;;;;;;;;;50.25;36.00;;;;;-8.91;86.93;99974.50;5022800;28;8969;-62
2021/01/16 03:32:55;;;;;;;;;40.50;31.50;;;;;-8.67;86.32;99968.94;5013644;28;8896;-63
2021/01/16 03:35:25;;;;;;;;;43.75;34.75;;;;;-8.99;87.44;99967.38;5021483;28;8855;-62
2021/01/16 03:37:55;;;;;;;;;45.75;27.50;;;;;-8.31;87.42;99967.88;5013452;28;9602;-63
2021/01/16 03:40:23;;;;;;;;;58.75;43.75;;;;;-8.95;85.83;99962.28;5020668;28;8860;-62
2021/01/16 03:42:50;;;;;;;;;38.50;31.25;;;;;-8.72;86.66;99959.28;5012865;28;8843;-62
2021/01/16 03:45:21;;;;;;;;;53.75;38.50;;;;;-8.71;88.82;99961.91;5014998;28;8863;-63
2021/01/16 03:47:50;;;;;;;;;44.50;30.00;;;;;-8.52;88.38;99965.75;5020161;28;8873;-62
2021/01/16 03:50:22;;;;;;;;;57.00;34.50;;;;;-8.88;86.84;99968.50;5021076;28;8855;-63
2021/01/16 03:52:49;;;;;;;;;58.50;41.25;;;;;-9.16;88.83;99962.72;5018362;28;8828;-63
2021/01/16 03:55:16;;;;;;;;;53.00;40.00;;;;;-9.03;89.95;99963.81;5021289;28;8852;-62
2021/01/16 03:57:43;;;;;;;;;47.25;32.75;;;;;-8.86;88.04;99970.28;5020710;28;8842;-63
2021/01/16 04:00:11;;;;;;;;;51.25;38.00;;;;;-9.06;87.71;99966.38;5021341;28;9576;-61
2021/01/16 04:02:38;;;;;;;;;55.50;39.00;;;;;-9.14;87.26;99971.41;5020035;28;8866;-62
2021/01/16 04:05:08;;;;;;;;;62.50;40.00;;;;;-9.04;88.02;99975.09;5020344;28;8874;-63
2021/01/16 04:07:35;;;;;;;;;69.00;42.75;;;;;-8.77;87.76;99972.19;5014206;28;8852;-63
2021/01/16 04:10:03;;;;;;;;;50.25;36.75;;;;;-9.37;85.89;99983.00;5027179;28;8836;-62
2021/01/16 04:12:30;;;;;;;;;56.50;39.25;;;;;-9.27;88.18;99979.78;5012273;28;8859;-63
2021/01/16 04:15:00;;;;;;;;;47.25;35.50;;;;;-8.92;87.02;99977.97;5020537;28;8957;-62
2021/01/16 04:17:27;;;;;;;;;55.00;34.50;;;;;-8.81;86.56;99974.72;5019658;28;8895;-63
2021/01/16 04:19:54;;;;;;;;;32.50;27.50;;;;;-8.53;85.94;99971.81;5026133;28;8946;-63
2021/01/16 04:22:21;;;;;;;;;65.75;40.00;;;;;-8.56;85.27;99976.06;5029457;28;8838;-62
2021/01/16 04:24:48;;;;;;;;;59.00;41.50;;;;;-8.50;86.20;99977.09;5024310;28;8832;-63
2021/01/16 04:27:15;;;;;;;;;54.25;36.25;;;;;-8.64;85.62;99974.19;5013108;28;8863;-62
2021/01/16 04:29:43;;;;;;;;;50.50;31.25;;;;;-8.24;85.51;99974.94;5017077;28;8934;-62
2021/01/16 04:32:10;;;;;;;;;56.75;31.00;;;;;-8.68;86.22;99975.00;5011817;28;8854;-62
2021/01/16 04:34:37;;;;;;;;;46.25;31.25;;;;;-8.83;87.90;99974.66;5012299;28;8882;-62
2021/01/16 04:37:04;;;;;;;;;57.25;34.50;;;;;-8.66;87.69;99975.00;5034472;28;8899;-63
2021/01/16 04:39:31;;;;;;;;;39.75;27.50;;;;;-8.46;86.74;99978.00;5021366;28;8886;-62
2021/01/16 04:42:00;;;;;;;;;40.00;22.50;;;;;-8.28;87.44;99969.66;5012166;28;8885;-63
2021/01/16 04:44:28;;;;;;;;;39.50;30.00;;;;;-8.58;86.88;99980.38;5030553;28;8841;-63
2021/01/16 04:46:57;;;;;;;;;44.75;34.75;;;;;-8.42;87.43;99977.25;5022724;28;8878;-62
2021/01/16 04:49:24;;;;;;;;;56.75;40.50;;;;;-8.72;87.91;99980.97;5035708;28;8828;-63
2021/01/16 04:51:53;;;;;;;;;67.75;47.75;;;;;-8.45;86.66;99985.88;5014697;28;8852;-63
2021/01/16 04:54:21;;;;;;;;;76.75;49.50;;;;;-8.31;87.75;99988.69;5015878;28;9678;-63
2021/01/16 04:56:48;;;;;;;;;78.00;49.00;;;;;-8.27;87.48;99995.69;5013547;28;8886;-63
2021/01/16 04:59:16;;;;;;;;;64.00;47.00;;;;;-8.42;86.25;99985.91;5021975;28;8951;-63
2021/01/16 05:01:46;;;;;;;;;58.00;43.75;;;;;-8.43;86.55;99993.69;5030189;28;8863;-63
2021/01/16 05:04:16;;;;;;;;;41.50;38.25;;;;;-8.30;87.44;99985.22;5023200;28;8867;-63
2021/01/16 05:06:47;;;;;;;;;81.50;54.75;;;;;-8.04;86.83;99995.25;5019714;28;8823;-63
2021/01/16 05:09:14;;;;;;;;;79.75;54.00;;;;;-8.21;86.78;100001.03;5028439;28;8836;-63
2021/01/16 05:11:48;;;;;;;;;63.25;45.25;;;;;-7.98;87.91;99993.66;5020707;28;9529;-63
2021/01/16 05:14:20;;;;;;;;;65.00;45.50;;;;;-7.87;86.46;99998.16;5018791;28;8832;-63
2021/01/16 05:17:00;;;;;;;;;46.00;30.50;;;;;-7.74;87.01;99984.47;5036572;28;8920;-63
2021/01/16 05:19:32;;;;;;;;;55.00;33.75;;;;;-8.02;87.62;99985.75;5021752;28;8836;-63
2021/01/16 05:22:02;;;;;;;;;79.00;54.25;;;;;-8.93;87.72;99998.72;5011755;28;8852;-63
2021/01/16 05:24:29;;;;;;;;;70.50;43.25;;;;;-9.32;87.87;99999.59;5016747;28;8866;-63
2021/01/16 05:27:00;;;;;;;;;55.75;36.75;;;;;-9.25;87.72;99996.28;5018860;28;8875;-63
2021/01/16 05:29:28;;;;;;;;;65.00;42.00;;;;;-8.84;87.03;99996.34;5020248;28;8852;-63
2021/01/16 05:31:58;;;;;;;;;50.75;37.25;;;;;-8.37;86.08;99996.41;5011816;28;8997;-63
2021/01/16 05:34:32;;;;;;;;;42.50;29.75;;;;;-7.87;88.07;99991.25;5027326;28;8870;-63
2021/01/16 05:37:00;;;;;;;;;27.00;21.00;;;;;-7.78;87.69;99993.13;5011128;28;8905;-63
2021/01/16 05:39:31;;;;;;;;;53.75;30.00;;;;;-7.66;86.80;100002.84;5011588;28;8847;-63
2021/01/16 05:42:03;;;;;;;;;65.50;42.00;;;;;-7.69;86.24;100006.28;5018972;28;8859;-63
2021/01/16 05:44:30;;;;;;;;;42.50;25.50;;;;;-7.53;86.77;100004.81;5022542;28;8959;-63
2021/01/16 05:46:58;;;;;;;;;75.75;52.00;;;;;-7.61;87.02;99998.59;5018872;28;8879;-63
2021/01/16 05:49:27;;;;;;;;;69.75;49.00;;;;;-7.54;87.47;100001.34;5038574;28;8848;-63
2021/01/16 05:51:54;;;;;;;;;56.50;39.75;;;;;-7.36;87.45;100005.97;5013898;28;8870;-63
2021/01/16 05:54:29;;;;;;;;;52.00;33.00;;;;;-7.68;86.43;100021.09;5012078;28;8846;-63
2021/01/16 05:56:57;;;;;;;;;44.75;30.75;;;;;-7.59;86.50;100008.19;5034665;28;8936;-63
2021/01/16 05:59:31;;;;;;;;;53.00;29.50;;;;;-7.53;86.63;100010.03;5019987;28;8840;-59
2021/01/16 06:02:03;;;;;;;;;41.00;30.50;;;;;-8.30;85.57;100019.09;5008412;28;8875;-59
2021/01/16 06:04:33;;;;;;;;;47.00;38.25;;;;;-9.20;87.28;100012.88;5009850;28;8835;-60
2021/01/16 06:07:07;;;;;;;;;39.00;30.50;;;;;-9.24;87.84;100016.25;5018866;28;8934;-60
2021/01/16 06:09:37;;;;;;;;;70.50;52.50;;;;;-9.10;88.59;100009.66;5016957;28;8842;-60
2021/01/16 06:12:06;;;;;;;;;72.75;51.75;;;;;-9.13;87.99;100019.09;5019281;28;9596;-59
2021/01/16 06:14:45;;;;;;;;;62.00;42.00;;;;;-8.91;88.08;100015.25;5017140;28;8850;-59
2021/01/16 06:17:15;;;;;;;;;66.00;42.00;;;;;-8.60;88.89;100026.31;5014742;28;8871;-60
2021/01/16 06:19:48;;;;;;;;;56.00;43.50;;;;;-8.40;87.94;100038.00;5009909;28;8976;-58
2021/01/16 06:22:17;;;;;;;;;53.75;38.00;;;;;-7.77;86.89;100039.16;5022666;28;8868;-59
2021/01/16 06:24:50;;;;;;;;;63.00;43.00;;;;;-7.93;86.32;100044.97;5023245;28;8969;-59
2021/01/16 06:27:22;;;;;;;;;48.75;34.50;;;;;-8.20;87.16;100049.66;5010828;28;8853;-59
2021/01/16 06:30:05;;;;;;;;;70.25;49.00;;;;;-8.63;88.73;100037.56;5024839;28;8878;-59
2021/01/16 06:32:32;;;;;;;;;63.25;47.50;;;;;-8.51;89.84;100042.13;5036637;28;8850;-59
2021/01/16 06:35:11;;;;;;;;;68.50;46.50;;;;;-8.33;88.72;100057.22;5021119;28;8929;-60
2021/01/16 06:37:47;;;;;;;;;61.50;39.75;;;;;-8.09;87.98;100056.81;5033006;28;9299;-59
2021/01/16 06:40:28;;;;;;;;;63.75;48.00;;;;;-8.07;87.32;100060.34;5032530;28;8843;-60
2021/01/16 06:42:57;;;;;;;;;53.00;40.00;;;;;-7.98;87.68;100060.50;5013964;28;8868;-60
2021/01/16 06:45:27;;;;;;;;;66.75;42.00;;;;;-8.13;87.01;100065.44;5019141;28;8904;-59
2021/01/16 06:48:01;;;;;;;;;56.25;39.50;;;;;-8.30;86.85;100067.69;5031773;28;8843;-59
2021/01/16 06:50:35;;;;;;;;;50.75;39.50;;;;;-8.06;85.81;100073.38;5036156;28;8843;-59
2021/01/16 06:53:03;;;;;;;;;73.75;51.75;;;;;-8.50;86.46;100073.41;5021759;28;8937;-60
2021/01/16 06:55:34;;;;;;;;;60.75;48.25;;;;;-8.29;87.44;100085.06;5025392;28;8844;-59
2021/01/16 06:58:18;;;;;;;;;57.75;40.75;;;;;-8.19;86.49;100090.50;5038891;28;8930;-60
2021/01/16 07:00:55;;;;;;;;;59.25;45.25;;;;;-8.31;85.88;100103.28;5028635;28;8847;-59
2021/01/16 07:03:27;;;;;;;;;77.25;52.25;;;;;-8.15;86.94;100108.81;5016681;28;8811;-59
2021/01/16 07:05:57;;;;;;;;;69.50;48.25;;;;;-8.02;86.14;100102.97;5031437;28;8836;-59
2021/01/16 07:08:24;;;;;;;;;67.50;47.50;;;;;-7.99;84.91;100106.50;5022600;28;8844;-59
2021/01/16 07:10:53;;;;;;;;;60.50;42.75;;;;;-7.93;83.78;100097.94;5021555;28;8828;-59
2021/01/16 07:13:20;;;;;;;;;91.50;62.00;;;;;-7.91;83.48;100101.47;5039598;28;9355;-59
2021/01/16 07:15:48;;;;;;;;;73.00;47.50;;;;;-8.03;84.79;100103.81;5017899;28;8840;-60
2021/01/16 07:18:16;;;;;;;;;76.00;56.00;;;;;-8.08;86.14;100108.06;5019921;28;8836;-60
2021/01/16 07:20:43;;;;;;;;;90.75;61.25;;;;;-7.89;85.52;100117.13;5037170;28;8839;-61
2021/01/16 07:23:10;;;;;;;;;106.25;69.00;;;;;-8.06;84.88;100124.59;5021028;28;9921;-59
2021/01/16 07:25:37;;;;;;;;;77.00;59.00;;;;;-8.23;86.53;100129.47;5028772;28;8855;-58
2021/01/16 07:28:05;;;;;;;;;75.50;56.25;;;;;-8.29;87.14;100127.63;5029885;28;8843;-59
2021/01/16 07:30:33;;;;;;;;;73.00;53.00;;;;;-8.33;87.93;100120.56;5021115;28;8851;-58
2021/01/16 07:33:02;;;;;;;;;81.50;59.00;;;;;-8.11;87.25;100121.03;5032623;28;8832;-59
2021/01/16 07:35:29;;;;;;;;;114.25;78.75;;;;;-8.05;86.82;100127.25;5020075;28;8859;-58
2021/01/16 07:37:56;;;;;;;;;96.75;70.00;;;;;-7.83;86.86;100127.66;5024679;28;8875;-58
2021/01/16 07:40:28;;;;;;;;;94.25;58.00;;;;;-7.30;86.41;100135.59;5020296;28;8958;-58
2021/01/16 07:43:01;;;;;;;;;95.25;72.00;;;;;-7.10;85.36;100135.94;5012310;28;8844;-58
2021/01/16 07:45:30;;;;;;;;;77.00;52.00;;;;;-6.70;85.39;100126.16;5032507;28;8969;-59
2021/01/16 07:48:09;;;;;;;;;63.50;48.25;;;;;-6.35;84.39;100131.00;5020163;28;8856;-59
2021/01/16 07:50:38;;;;;;;;;65.75;49.00;;;;;-6.63;84.99;100128.00;5024003;28;9253;-60
2021/01/16 07:53:09;;;;;;;;;39.00;29.50;;;;;-6.30;84.80;100132.78;5021625;28;8831;-59
2021/01/16 07:55:36;;;;;;;;;62.00;45.50;;;;;-6.29;85.60;100131.06;5025233;28;8905;-59
2021/01/16 07:58:29;;;;;;;;;53.50;33.00;;;;;-6.06;84.42;100132.25;5013614;28;8863;-59
2021/01/16 08:01:00;;;;;;;;;82.25;62.75;;;;;-5.73;83.18;100128.25;5017566;28;8909;-57
2021/01/16 08:04:05;;;;;;;;;96.50;70.25;;;;;-5.96;82.62;100136.72;5017874;28;8850;-59
2021/01/16 08:07:09;;;;;;;;;84.50;59.50;;;;;-6.02;83.62;100127.94;5015991;28;9577;-59
2021/01/16 08:09:58;;;;;;;;;80.25;58.25;;;;;-5.83;84.08;100123.78;5021006;28;8839;-59
2021/01/16 08:12:28;;;;;;;;;65.25;43.50;;;;;-5.83;83.21;100115.94;5018267;28;9553;-59
2021/01/16 08:14:55;;;;;;;;;51.00;36.25;;;;;-5.93;84.00;100106.25;5015364;28;8870;-59
2021/01/16 08:17:35;;;;;;;;;51.50;25.00;;;;;-5.85;84.19;100117.66;5028112;28;8892;-59
2021/01/16 08:20:20;;;;;;;;;49.50;36.75;;;;;-5.41;83.43;100112.91;5031344;28;8841;-58
2021/01/16 08:22:51;;;;;;;;;52.00;36.00;;;;;-5.38;82.79;100112.03;5037007;28;8985;-57
2021/01/16 08:25:27;;;;;;;;;47.50;35.75;;;;;-5.20;82.09;100120.06;5008970;28;9561;-56
2021/01/16 08:27:57;;;;;;;;;51.50;31.00;;;;;-4.61;81.28;100123.16;5038336;28;8852;-55
2021/01/16 08:30:27;;;;;;;;;52.75;37.50;;;;;-4.65;80.77;100119.63;5036382;28;8957;-56
2021/01/16 08:32:54;;;;;;;;;52.50;35.00;;;;;-4.28;80.33;100123.34;5022361;28;8945;-56
2021/01/16 08:35:39;;;;;;;;;67.25;37.50;;;;;-4.06;78.61;100121.69;5024103;28;8927;-56
2021/01/16 08:38:18;;;;;;;;;54.00;41.50;;;;;-3.74;78.29;100128.81;5016798;28;8859;-55
2021/01/16 08:41:08;;;;;;;;;64.50;48.25;;;;;-3.48;78.48;100128.91;5018708;28;8946;-54
2021/01/16 08:43:38;;;;;;;;;61.25;46.00;;;;;-3.79;78.75;100134.09;5017526;28;8858;-57
2021/01/16 08:46:33;;;;;;;;;53.25;34.75;;;;;-3.40;78.16;100142.91;5014519;28;8957;-56
2021/01/16 08:49:10;;;;;;;;;57.25;38.50;;;;;-3.56;78.56;100139.38;5020069;28;8953;-52
2021/01/16 08:51:42;;;;;;;;;41.00;33.50;;;;;-3.42;77.19;100147.31;5020720;28;8844;-57
2021/01/16 08:55:11;;;;;;;;;42.50;31.50;;;;;-3.58;78.41;100141.16;5019487;28;8950;-57
2021/01/16 08:57:40;;;;;;;;;34.50;17.75;;;;;-3.83;77.98;100139.31;5019620;28;8874;-54
2021/01/16 09:00:20;;;;;;;;;62.50;41.50;;;;;-3.67;78.47;100140.22;5020193;28;8873;-57
2021/01/16 09:03:19;;;;;;;;;37.25;23.25;;;;;-3.59;79.41;100138.50;5025397;28;8965;-56
2021/01/16 09:06:02;;;;;;;;;80.75;62.00;;;;;-2.90;76.66;100136.88;5020511;28;8841;-55
2021/01/16 09:08:30;;;;;;;;;42.00;31.00;;;;;-2.96;76.94;100139.50;5015842;28;8856;-58
2021/01/16 09:11:14;;;;;;;;;87.25;64.00;;;;;-2.65;74.24;100136.88;5020790;28;8841;-54
2021/01/16 09:13:43;;;;;;;;;53.25;45.00;;;;;-2.86;76.48;100135.13;5014420;28;8866;-54
2021/01/16 09:16:30;;;;;;;;;56.50;40.00;;;;;-2.84;74.36;100135.09;5021741;28;8872;-57
2021/01/16 09:18:58;;;;;;;;;56.50;46.00;;;;;-2.61;75.55;100125.44;5019458;28;9643;-56
2021/01/16 09:21:26;;;;;;;;;41.50;26.50;;;;;-2.05;72.97;100132.38;5018809;28;8842;-56
2021/01/16 09:23:55;;;;;;;;;42.50;34.75;;;;;-2.40;73.79;100132.44;5019626;28;8842;-55
2021/01/16 09:26:25;;;;;;;;;40.50;32.00;;;;;-2.21;73.55;100135.94;5019335;28;8823;-52
2021/01/16 09:29:02;;;;;;;;;58.00;35.50;;;;;-1.67;72.96;100136.59;5011138;28;9736;-55
2021/01/16 09:31:39;;;;;;;;;44.25;26.50;;;;;-1.86;71.40;100134.94;5021750;28;8839;-56
2021/01/16 09:34:17;;;;;;;;;36.00;24.25;;;;;-2.17;72.52;100136.78;5022968;28;8871;-55
2021/01/16 09:36:48;;;;;;;;;40.50;26.00;;;;;-2.16;73.83;100131.50;5019433;28;8950;-57
2021/01/16 09:39:29;;;;;;;;;31.75;23.75;;;;;-2.07;74.32;100135.88;5019008;28;8847;-58
2021/01/16 09:42:02;;;;;;;;;38.50;27.25;;;;;-2.04;74.36;100141.13;5016442;28;8917;-59
2021/01/16 09:44:45;;;;;;;;;36.25;26.75;;;;;-2.30;73.64;100133.31;5034467;28;8871;-57
2021/01/16 09:47:26;;;;;;;;;28.00;24.25;;;;;-2.24;75.72;100128.00;5019211;28;8859;-58
2021/01/16 09:50:17;;;;;;;;;33.75;24.75;;;;;-2.14;74.05;100135.00;5027008;28;8873;-58
2021/01/16 09:52:51;;;;;;;;;30.25;23.50;;;;;-2.43;74.35;100128.06;5034499;28;9648;-58
2021/01/16 09:55:33;;;;;;;;;38.75;26.00;;;;;-2.36;74.42;100123.69;5030387;28;8831;-58
2021/01/16 09:58:03;;;;;;;;;32.50;22.00;;;;;-2.05;72.73;100119.22;5033809;28;8898;-58
2021/01/16 10:00:33;;;;;;;;;36.00;25.00;;;;;-2.38;73.69;100108.78;5019096;28;8839;-58
2021/01/16 10:03:08;;;;;;;;;32.00;20.00;;;;;-2.76;73.68;100112.34;5018685;28;8909;-58
2021/01/16 10:05:43;;;;;;;;;44.75;25.75;;;;;-2.55;74.88;100117.59;5013010;28;8835;-59
2021/01/16 10:08:28;;;;;;;;;55.50;37.00;;;;;-2.29;73.79;100114.91;5022241;28;8879;-57
2021/01/16 10:10:55;;;;;;;;;23.00;15.25;;;;;-1.71;72.97;100111.19;5022585;28;8852;-58
2021/01/16 10:13:33;;;;;;;;;64.75;40.75;;;;;-1.49;72.72;100104.03;5014918;28;8839;-56
2021/01/16 10:16:14;;;;;;;;;40.50;36.25;;;;;-1.55;71.95;100099.69;5011469;28;8829;-59
2021/01/16 10:18:42;;;;;;;;;40.75;32.25;;;;;-1.49;73.25;100103.16;5011052;28;8863;-60
2021/01/16 10:21:13;;;;;;;;;31.25;23.50;;;;;-1.52;71.81;100103.19;5017784;28;8894;-59
2021/01/16 10:23:44;;;;;;;;;39.50;28.00;;;;;-1.72;72.80;100101.50;5019733;28;8860;-59
2021/01/16 10:26:14;;;;;;;;;28.25;20.75;;;;;-1.55;71.54;100094.41;5019602;28;8837;-59
2021/01/16 10:29:04;;;;;;;;;43.50;28.00;;;;;-1.66;72.42;100084.81;5019087;28;8863;-59
2021/01/16 10:31:31;;;;;;;;;41.50;24.00;;;;;-1.56;71.60;100083.88;5013341;28;8847;-58
2021/01/16 10:34:10;;;;;;;;;27.25;22.75;;;;;-1.77;72.24;100082.25;5012915;28;8835;-59
2021/01/16 10:36:38;;;;;;;;;36.00;24.25;;;;;-1.74;71.72;100084.84;5009514;28;8843;-58
2021/01/16 10:39:14;;;;;;;;;38.50;23.00;;;;;-1.57;71.05;100083.00;5017516;28;9671;-59
2021/01/16 10:41:44;;;;;;;;;22.75;19.50;;;;;-1.69;70.67;100072.53;5016815;28;8839;-59
2021/01/16 10:44:18;;;;;;;;;27.75;20.75;;;;;-1.26;71.42;100080.19;5028026;28;8867;-59
2021/01/16 10:46:48;;;;;;;;;38.00;27.50;;;;;-1.20;70.80;100069.59;5023915;28;8827;-59
2021/01/16 10:49:26;;;;;;;;;57.50;33.00;;;;;-1.45;71.04;100068.00;5017946;28;9556;-59
2021/01/16 10:51:57;;;;;;;;;44.75;33.25;;;;;-1.18;71.20;100062.56;5019254;28;8901;-59
2021/01/16 10:54:25;;;;;;;;;36.50;27.00;;;;;-1.25;70.67;100055.59;5017354;28;8839;-59
2021/01/16 10:57:06;;;;;;;;;25.00;20.50;;;;;-1.39;71.29;100057.47;5018929;28;9573;-58
2021/01/16 10:59:36;;;;;;;;;36.50;27.50;;;;;-1.24;71.71;100045.91;5023494;28;8855;-59
2021/01/16 11:02:15;;;;;;;;;31.50;19.25;;;;;-1.30;71.08;100048.59;5027879;28;9013;-59
2021/01/16 11:04:44;;;;;;;;;41.00;30.75;;;;;-1.20;70.63;100042.38;5021326;28;8983;-58
2021/01/16 11:07:27;;;;;;;;;35.25;25.00;;;;;-0.95;70.07;100041.28;5012930;28;8863;-59
2021/01/16 11:10:07;;;;;;;;;35.50;30.25;;;;;-0.91;70.11;100039.50;5037597;28;8939;-58
2021/01/16 11:12:34;;;;;;;;;34.50;26.25;;;;;-0.96;71.36;100030.75;5037508;28;8934;-58
2021/01/16 11:15:21;;;;;;;;;46.75;36.75;;;;;-0.67;70.41;100023.41;5022591;28;8863;-59
2021/01/16 11:17:54;;;;;;;;;43.00;30.50;;;;;-0.97;71.40;100026.38;5024788;28;9565;-59
2021/01/16 11:20:33;;;;;;;;;41.00;32.25;;;;;-0.89;70.56;100021.91;5040849;28;8860;-57
2021/01/16 11:23:45;;;;;;;;;32.75;27.25;;;;;-0.65;71.19;100017.28;5029409;28;8859;-59
2021/01/16 11:26:14;;;;;;;;;34.00;28.00;;;;;-0.69;70.04;100014.66;5014943;28;8858;-59
2021/01/16 11:28:54;;;;;;;;;33.75;25.00;;;;;-0.37;69.26;100004.63;5036953;28;8865;-60
2021/01/16 11:31:36;;;;;;;;;42.00;29.50;;;;;-0.52;70.03;100003.94;5021061;28;8862;-59
2021/01/16 11:34:17;;;;;;;;;35.75;26.00;;;;;-0.51;67.35;99991.63;5021286;28;8843;-58
2021/01/16 11:36:55;;;;;;;;;36.00;27.00;;;;;-0.63;67.60;99997.00;5018493;28;8831;-59
2021/01/16 11:40:00;;;;;;;;;23.00;18.50;;;;;-0.68;66.16;99984.78;5039404;28;8868;-59
2021/01/16 11:42:52;;;;;;;;;20.25;17.00;;;;;-0.57;65.97;99987.28;5037689;28;8910;-59
2021/01/16 11:45:20;;;;;;;;;24.50;17.00;;;;;-0.48;65.44;99987.16;5013848;28;8862;-59
2021/01/16 11:47:52;;;;;;;;;24.50;20.50;;;;;-0.53;66.27;99985.47;5034679;28;8872;-58